Time;durP1;ratioP1;P1;durP2;ratioP2;P2;SDS_P1;SDS_P2;PMS_P1;PMS_P2;Temp;Humidity;BMP_temperature;BMP_pressure;BME280_temperature;BME280_humidity;BME280_pressure;Samples;Min_cycle;Max_cycle;Signal;HPM_P1;HPM_P2
2021/07/11 00:01:13;;;;;;;2.95;1.70;;;;;;;;;;5073608;28;20058;-50
2021/07/11 00:03:39;;;;;;;1.58;1.40;;;;;;;;;;5073820;28;20021;-50
2021/07/11 00:06:05;;;;;;;1.42;1.30;;;;;;;;;;5073894;28;20074;-50
2021/07/11 00:08:31;;;;;;;2.55;1.45;;;;;;;;;;5073447;28;20451;-50
2021/07/11 00:10:57;;;;;;;2.80;1.90;;;;;;;;;;5071352;28;20036;-50
2021/07/11 00:13:23;;;;;;;7.95;1.30;;;;;;;;;;5072663;28;20040;-50
2021/07/11 00:15:49;;;;;;;2.00;1.45;;;;;;;;;;5073673;28;20056;-50
2021/07/11 00:18:15;;;;;;;1.73;1.30;;;;;;;;;;5073565;28;20359;-49
2021/07/11 00:20:41;;;;;;;2.90;1.23;;;;;;;;;;5072800;28;20025;-50
2021/07/11 00:23:07;;;;;;;2.53;1.52;;;;;;;;;;5073417;28;20032;-50
2021/07/11 00:25:33;;;;;;;2.58;1.38;;;;;;;;;;5073057;28;20081;-49
2021/07/11 00:27:59;;;;;;;1.48;1.15;;;;;;;;;;5073748;28;20070;-50
2021/07/11 00:30:26;;;;;;;1.40;1.27;;;;;;;;;;5073463;28;20028;-50
2021/07/11 00:32:54;;;;;;;1.27;0.90;;;;;;;;;;5072612;28;20037;-50
2021/07/11 00:35:20;;;;;;;2.88;1.30;;;;;;;;;;5073286;28;20021;-50
2021/07/11 00:37:46;;;;;;;5.15;1.00;;;;;;;;;;5072407;28;20028;-50
2021/07/11 00:40:13;;;;;;;1.65;1.05;;;;;;;;;;5073276;28;20024;-50
2021/07/11 00:42:40;;;;;;;2.55;1.27;;;;;;;;;;5072684;28;20024;-50
2021/07/11 00:45:07;;;;;;;1.92;0.77;;;;;;;;;;5073210;28;20024;-49
2021/07/11 00:47:36;;;;;;;2.30;1.17;;;;;;;;;;5073513;28;20032;-50
2021/07/11 00:50:02;;;;;;;4.85;1.23;;;;;;;;;;5072981;28;20042;-50
2021/07/11 00:52:28;;;;;;;3.83;1.25;;;;;;;;;;5072304;28;20112;-50
2021/07/11 00:54:54;;;;;;;1.42;1.25;;;;;;;;;;5073019;28;20055;-50
2021/07/11 00:57:20;;;;;;;1.75;0.95;;;;;;;;;;5073316;28;20024;-50
2021/07/11 00:59:46;;;;;;;1.90;1.08;;;;;;;;;;5073191;28;20025;-50
2021/07/11 01:02:14;;;;;;;1.63;1.17;;;;;;;;;;5072445;28;20494;-49
2021/07/11 01:04:47;;;;;;;1.50;1.00;;;;;;;;;;5073065;28;20025;-50
2021/07/11 01:07:14;;;;;;;1.65;1.40;;;;;;;;;;5072476;28;20126;-50
2021/07/11 01:09:46;;;;;;;1.70;1.20;;;;;;;;;;5073063;28;20029;-50
2021/07/11 01:12:21;;;;;;;0.90;0.90;;;;;;;;;;5072263;28;20037;-49
2021/07/11 01:14:48;;;;;;;2.10;1.00;;;;;;;;;;5072808;28;20103;-50
2021/07/11 01:17:15;;;;;;;1.00;1.00;;;;;;;;;;5072769;28;20028;-49
2021/07/11 01:19:47;;;;;;;1.70;1.20;;;;;;;;;;5072209;28;20029;-49
2021/07/11 01:22:14;;;;;;;1.38;1.10;;;;;;;;;;5072272;28;20108;-50
2021/07/11 01:24:47;;;;;;;1.10;1.00;;;;;;;;;;5072562;28;20452;-50
2021/07/11 01:27:13;;;;;;;1.73;1.00;;;;;;;;;;5072872;28;20119;-49
2021/07/11 01:29:40;;;;;;;4.32;1.42;;;;;;;;;;5072792;28;20028;-50
2021/07/11 01:32:06;;;;;;;1.65;1.33;;;;;;;;;;5071468;28;20093;-49
2021/07/11 01:34:33;;;;;;;1.70;1.10;;;;;;;;;;5072197;28;20466;-50
2021/07/11 01:36:59;;;;;;;1.92;1.25;;;;;;;;;;5073044;28;20052;-50
2021/07/11 01:39:26;;;;;;;2.47;1.20;;;;;;;;;;5072717;28;20028;-49
2021/07/11 01:41:52;;;;;;;2.00;1.17;;;;;;;;;;5071807;28;20074;-50
2021/07/11 01:44:19;;;;;;;1.90;1.35;;;;;;;;;;5072304;28;20099;-50
2021/07/11 01:46:45;;;;;;;11.90;1.30;;;;;;;;;;5072283;28;20020;-50
2021/07/11 01:49:12;;;;;;;1.75;1.42;;;;;;;;;;5073836;28;20367;-50
2021/07/11 01:51:39;;;;;;;1.10;0.98;;;;;;;;;;5075922;28;20024;-50
2021/07/11 01:54:05;;;;;;;1.25;0.95;;;;;;;;;;5076650;28;20028;-49
2021/07/11 01:56:31;;;;;;;7.85;1.20;;;;;;;;;;5076417;28;20023;-49
2021/07/11 01:58:57;;;;;;;2.17;1.52;;;;;;;;;;5076433;28;20025;-50
2021/07/11 02:01:23;;;;;;;1.25;1.15;;;;;;;;;;5074969;28;20032;-50
2021/07/11 02:03:49;;;;;;;3.78;1.30;;;;;;;;;;5076666;28;20021;-50
2021/07/11 02:06:15;;;;;;;2.65;1.30;;;;;;;;;;5075999;28;20021;-50
2021/07/11 02:08:42;;;;;;;1.15;1.05;;;;;;;;;;5075959;28;20124;-50
2021/07/11 02:11:10;;;;;;;1.25;1.15;;;;;;;;;;5075112;28;20398;-50
2021/07/11 02:13:39;;;;;;;2.20;1.33;;;;;;;;;;5076154;28;20356;-50
2021/07/11 02:16:10;;;;;;;1.38;1.20;;;;;;;;;;5075378;28;20154;-50
2021/07/11 02:18:38;;;;;;;1.17;1.08;;;;;;;;;;5075905;28;20024;-50
2021/07/11 02:21:05;;;;;;;1.00;0.90;;;;;;;;;;5074896;28;20028;-50
2021/07/11 02:23:32;;;;;;;2.95;1.08;;;;;;;;;;5075909;28;20025;-50
2021/07/11 02:25:58;;;;;;;1.02;0.98;;;;;;;;;;5068512;28;20024;-50
2021/07/11 02:28:25;;;;;;;3.03;1.00;;;;;;;;;;5055499;28;20029;-50
2021/07/11 02:30:59;;;;;;;2.03;1.15;;;;;;;;;;5054936;28;20316;-50
2021/07/11 02:33:32;;;;;;;2.15;1.23;;;;;;;;;;5055840;28;20040;-50
2021/07/11 02:36:01;;;;;;;2.25;1.10;;;;;;;;;;5055545;28;20025;-50
2021/07/11 02:38:29;;;;;;;1.75;1.02;;;;;;;;;;5055180;28;20456;-51
2021/07/11 02:40:55;;;;;;;1.23;1.08;;;;;;;;;;5054803;28;20444;-50
2021/07/11 02:43:21;;;;;;;1.92;1.10;;;;;;;;;;5055643;28;20127;-50
2021/07/11 02:45:47;;;;;;;1.50;1.23;;;;;;;;;;5055384;28;20035;-50
2021/07/11 02:48:13;;;;;;;1.25;1.10;;;;;;;;;;5055216;28;20368;-50
2021/07/11 02:50:43;;;;;;;1.45;1.20;;;;;;;;;;5066041;28;20107;-50
2021/07/11 02:53:10;;;;;;;3.72;1.23;;;;;;;;;;5075425;28;20089;-50
2021/07/11 02:55:37;;;;;;;1.92;0.90;;;;;;;;;;5075542;28;20028;-50
2021/07/11 02:58:07;;;;;;;1.67;1.13;;;;;;;;;;5075209;28;20032;-50
2021/07/11 03:00:34;;;;;;;3.53;1.13;;;;;;;;;;5073303;28;20029;-50
2021/07/11 03:03:01;;;;;;;0.82;0.82;;;;;;;;;;5075113;28;20031;-50
2021/07/11 03:05:27;;;;;;;1.83;1.10;;;;;;;;;;5075124;28;20362;-50
2021/07/11 03:07:54;;;;;;;2.15;1.00;;;;;;;;;;5074642;28;20123;-50
2021/07/11 03:10:20;;;;;;;3.28;1.60;;;;;;;;;;5075265;28;20453;-50
2021/07/11 03:12:48;;;;;;;2.15;1.08;;;;;;;;;;5073667;28;20033;-50
2021/07/11 03:15:14;;;;;;;2.42;1.33;;;;;;;;;;5075121;28;20042;-49
2021/07/11 03:17:42;;;;;;;2.78;1.13;;;;;;;;;;5074786;28;20036;-50
2021/07/11 03:20:09;;;;;;;1.88;1.02;;;;;;;;;;5074556;28;20043;-50
2021/07/11 03:22:36;;;;;;;1.38;1.27;;;;;;;;;;5073694;28;20058;-50
2021/07/11 03:25:07;;;;;;;1.85;1.27;;;;;;;;;;5074673;28;20059;-49
2021/07/11 03:27:33;;;;;;;1.67;1.50;;;;;;;;;;5075011;28;20184;-49
2021/07/11 03:30:06;;;;;;;6.97;1.35;;;;;;;;;;5074833;28;20043;-50
2021/07/11 03:32:35;;;;;;;1.17;1.08;;;;;;;;;;5073637;28;20033;-50
2021/07/11 03:35:02;;;;;;;1.65;1.00;;;;;;;;;;5074683;28;20040;-49
2021/07/11 03:37:30;;;;;;;3.15;1.30;;;;;;;;;;5074435;28;20426;-50
2021/07/11 03:39:56;;;;;;;2.58;1.55;;;;;;;;;;5074544;28;20093;-50
2021/07/11 03:42:22;;;;;;;1.20;1.10;;;;;;;;;;5073220;28;20024;-50
2021/07/11 03:44:51;;;;;;;1.38;1.10;;;;;;;;;;5074250;28;20455;-49
2021/07/11 03:47:20;;;;;;;1.27;1.17;;;;;;;;;;5073523;28;20067;-49
2021/07/11 03:49:47;;;;;;;1.45;1.20;;;;;;;;;;5074534;28;20017;-49
2021/07/11 03:52:15;;;;;;;12.07;1.30;;;;;;;;;;5073629;28;20041;-49
2021/07/11 03:54:42;;;;;;;3.78;1.02;;;;;;;;;;5074134;28;20025;-50
2021/07/11 03:57:08;;;;;;;2.08;1.35;;;;;;;;;;5073597;28;20025;-49
2021/07/11 03:59:34;;;;;;;2.55;1.27;;;;;;;;;;5074026;28;20029;-50
2021/07/11 04:02:03;;;;;;;3.53;1.30;;;;;;;;;;5073103;28;20509;-49
2021/07/11 04:04:30;;;;;;;2.17;1.40;;;;;;;;;;5074154;28;20017;-49
2021/07/11 04:06:57;;;;;;;1.88;1.35;;;;;;;;;;5073873;28;20485;-49
2021/07/11 04:09:24;;;;;;;2.17;1.00;;;;;;;;;;5073311;28;20487;-49
2021/07/11 04:11:50;;;;;;;4.60;1.30;;;;;;;;;;5073127;28;20037;-49
2021/07/11 04:14:17;;;;;;;0.98;0.90;;;;;;;;;;5073344;28;20024;-49
2021/07/11 04:16:45;;;;;;;5.72;1.48;;;;;;;;;;5073451;28;20111;-49
2021/07/11 04:19:11;;;;;;;6.40;1.63;;;;;;;;;;5073375;28;20100;-50
2021/07/11 04:21:37;;;;;;;0.88;0.88;;;;;;;;;;5062378;28;20032;-49
2021/07/11 04:24:04;;;;;;;4.53;1.60;;;;;;;;;;5063770;28;20032;-49
2021/07/11 04:26:34;;;;;;;1.73;1.30;;;;;;;;;;5060588;28;20044;-50
2021/07/11 04:29:00;;;;;;;3.85;1.25;;;;;;;;;;5070811;28;20332;-50
2021/07/11 04:31:26;;;;;;;2.55;1.45;;;;;;;;;;5069178;28;20036;-49
2021/07/11 04:33:53;;;;;;;1.73;1.27;;;;;;;;;;5073008;28;20421;-49
2021/07/11 04:36:19;;;;;;;2.10;1.60;;;;;;;;;;5073738;28;20020;-49
2021/07/11 04:38:45;;;;;;;1.83;1.35;;;;;;;;;;5073222;28;20351;-49
2021/07/11 04:41:11;;;;;;;1.60;1.50;;;;;;;;;;5072453;28;20024;-49
2021/07/11 04:43:38;;;;;;;2.30;1.67;;;;;;;;;;5073525;28;20031;-50
2021/07/11 04:46:04;;;;;;;5.47;1.92;;;;;;;;;;5073323;28;20039;-50
2021/07/11 04:48:30;;;;;;;2.35;1.50;;;;;;;;;;5072836;28;20367;-49
2021/07/11 04:50:57;;;;;;;3.70;1.67;;;;;;;;;;5072517;28;20028;-50
2021/07/11 04:53:24;;;;;;;4.35;1.60;;;;;;;;;;5073077;28;20029;-50
2021/07/11 04:55:50;;;;;;;2.45;1.65;;;;;;;;;;5072811;28;20032;-49
2021/07/11 04:58:17;;;;;;;2.30;1.73;;;;;;;;;;5070006;28;20024;-49
2021/07/11 05:00:43;;;;;;;6.18;2.25;;;;;;;;;;5066455;28;20395;-50
2021/07/11 05:03:09;;;;;;;2.25;1.55;;;;;;;;;;5072691;28;20029;-50
2021/07/11 05:05:35;;;;;;;2.05;1.88;;;;;;;;;;5069698;28;20268;-50
2021/07/11 05:08:02;;;;;;;3.42;2.25;;;;;;;;;;5072766;28;20104;-50
2021/07/11 05:10:29;;;;;;;3.13;2.13;;;;;;;;;;5072573;28;20519;-49
2021/07/11 05:12:55;;;;;;;3.55;1.70;;;;;;;;;;5072237;28;20032;-49
2021/07/11 05:15:21;;;;;;;2.90;1.90;;;;;;;;;;5072795;28;20111;-50
2021/07/11 05:17:47;;;;;;;2.03;1.75;;;;;;;;;;5072797;28;20145;-50
2021/07/11 05:20:13;;;;;;;6.28;1.80;;;;;;;;;;5073026;28;20029;-50
2021/07/11 05:22:39;;;;;;;2.40;1.92;;;;;;;;;;5071790;28;20455;-50
2021/07/11 05:25:06;;;;;;;2.97;1.80;;;;;;;;;;5071991;28;20035;-49
2021/07/11 05:27:31;;;;;;;2.22;1.75;;;;;;;;;;5073137;28;20020;-50
2021/07/11 05:29:57;;;;;;;2.10;1.90;;;;;;;;;;5072303;28;20025;-50
2021/07/11 05:32:23;;;;;;;2.35;1.92;;;;;;;;;;5072160;28;20072;-50
2021/07/11 05:34:50;;;;;;;4.22;2.10;;;;;;;;;;5070629;28;20074;-50
2021/07/11 05:37:16;;;;;;;2.55;1.80;;;;;;;;;;5073142;28;20024;-50
2021/07/11 05:39:42;;;;;;;2.03;1.73;;;;;;;;;;5072471;28;20032;-50
2021/07/11 05:42:08;;;;;;;2.28;1.80;;;;;;;;;;5071707;28;20470;-49
2021/07/11 05:44:34;;;;;;;3.08;2.35;;;;;;;;;;5064144;28;20029;-50
2021/07/11 05:46:59;;;;;;;3.13;1.80;;;;;;;;;;5061661;28;20122;-50
2021/07/11 05:49:25;;;;;;;1.67;1.27;;;;;;;;;;5063189;28;20020;-49
2021/07/11 05:51:51;;;;;;;4.70;1.80;;;;;;;;;;5060534;28;20506;-50
2021/07/11 05:54:17;;;;;;;1.67;1.58;;;;;;;;;;5062073;28;20027;-49
2021/07/11 05:56:43;;;;;;;2.70;1.83;;;;;;;;;;5062592;28;20103;-50
2021/07/11 05:59:09;;;;;;;3.78;2.17;;;;;;;;;;5060396;28;20021;-50
2021/07/11 06:01:35;;;;;;;1.85;1.48;;;;;;;;;;5061678;28;20016;-49
2021/07/11 06:04:01;;;;;;;3.08;1.70;;;;;;;;;;5059945;28;20013;-49
2021/07/11 06:06:28;;;;;;;2.67;1.50;;;;;;;;;;5057152;28;20056;-49
2021/07/11 06:08:54;;;;;;;2.92;1.65;;;;;;;;;;5056091;28;20025;-49
2021/07/11 06:11:20;;;;;;;1.98;1.50;;;;;;;;;;5060712;28;20104;-49
2021/07/11 06:13:46;;;;;;;3.08;1.70;;;;;;;;;;5062255;28;20032;-49
2021/07/11 06:16:12;;;;;;;2.33;1.50;;;;;;;;;;5061405;28;20059;-49
2021/07/11 06:18:38;;;;;;;2.88;1.50;;;;;;;;;;5061545;28;20514;-49
2021/07/11 06:21:04;;;;;;;10.52;1.40;;;;;;;;;;5061696;28;20121;-49
2021/07/11 06:23:30;;;;;;;1.20;1.10;;;;;;;;;;5060506;28;20024;-49
2021/07/11 06:25:56;;;;;;;2.25;1.30;;;;;;;;;;5066310;28;20111;-49
2021/07/11 06:28:22;;;;;;;3.08;1.65;;;;;;;;;;5072235;28;20027;-49
2021/07/11 06:30:48;;;;;;;2.25;1.20;;;;;;;;;;5071140;28;20388;-50
2021/07/11 06:33:14;;;;;;;3.60;1.48;;;;;;;;;;5071959;28;20068;-49
2021/07/11 06:35:40;;;;;;;6.95;1.38;;;;;;;;;;5072668;28;20048;-49
2021/07/11 06:38:06;;;;;;;5.72;1.65;;;;;;;;;;5075769;28;20371;-49
2021/07/11 06:40:32;;;;;;;1.17;1.08;;;;;;;;;;5075114;28;20028;-49
2021/07/11 06:42:58;;;;;;;1.38;1.27;;;;;;;;;;5074848;28;20033;-49
2021/07/11 06:45:24;;;;;;;3.10;1.55;;;;;;;;;;5075729;28;20077;-49
2021/07/11 06:47:50;;;;;;;2.05;1.48;;;;;;;;;;5075685;28;20448;-49
2021/07/11 06:50:17;;;;;;;1.83;1.40;;;;;;;;;;5075513;28;20016;-50
2021/07/11 06:52:44;;;;;;;1.55;1.40;;;;;;;;;;5074462;28;20121;-49
2021/07/11 06:55:11;;;;;;;3.28;1.50;;;;;;;;;;5075828;28;20016;-51
2021/07/11 06:57:38;;;;;;;2.28;1.33;;;;;;;;;;5074987;28;20040;-51
2021/07/11 07:00:06;;;;;;;2.50;1.40;;;;;;;;;;5075360;28;20025;-50
2021/07/11 07:02:32;;;;;;;3.55;1.50;;;;;;;;;;5074136;28;20359;-50
2021/07/11 07:04:57;;;;;;;2.42;1.65;;;;;;;;;;5075196;28;20013;-50
2021/07/11 07:07:23;;;;;;;1.42;1.08;;;;;;;;;;5075226;28;20029;-51
2021/07/11 07:09:49;;;;;;;8.05;1.52;;;;;;;;;;5075142;28;20021;-50
2021/07/11 07:12:16;;;;;;;1.75;1.25;;;;;;;;;;5073816;28;20134;-50
2021/07/11 07:14:42;;;;;;;2.40;1.40;;;;;;;;;;5074953;28;20017;-50
2021/07/11 07:17:08;;;;;;;1.60;1.40;;;;;;;;;;5075247;28;20462;-51
2021/07/11 07:19:34;;;;;;;1.35;1.25;;;;;;;;;;5074958;28;20129;-50
2021/07/11 07:22:00;;;;;;;6.28;1.25;;;;;;;;;;5074443;28;20055;-50
2021/07/11 07:24:26;;;;;;;3.20;1.98;;;;;;;;;;5075025;28;20025;-50
2021/07/11 07:26:52;;;;;;;3.28;1.45;;;;;;;;;;5074633;28;20025;-50
2021/07/11 07:29:18;;;;;;;1.88;1.55;;;;;;;;;;5074727;28;20024;-51
2021/07/11 07:31:44;;;;;;;2.22;1.45;;;;;;;;;;5074142;28;20029;-50
2021/07/11 07:34:10;;;;;;;2.25;1.70;;;;;;;;;;5074433;28;20444;-50
2021/07/11 07:36:36;;;;;;;2.53;1.90;;;;;;;;;;5074855;28;20078;-50
2021/07/11 07:39:03;;;;;;;1.70;1.48;;;;;;;;;;5074057;28;20428;-51
2021/07/11 07:41:29;;;;;;;3.38;1.08;;;;;;;;;;5073432;28;20029;-51
2021/07/11 07:43:55;;;;;;;2.45;1.85;;;;;;;;;;5074678;28;20023;-51
2021/07/11 07:46:21;;;;;;;3.70;1.88;;;;;;;;;;5073678;28;20016;-51
2021/07/11 07:48:47;;;;;;;1.60;1.15;;;;;;;;;;5073980;28;20039;-51
2021/07/11 07:51:13;;;;;;;2.17;1.50;;;;;;;;;;5073351;28;20029;-51
2021/07/11 07:53:40;;;;;;;4.03;1.38;;;;;;;;;;5074466;28;20090;-51
2021/07/11 07:56:06;;;;;;;2.00;1.55;;;;;;;;;;5074158;28;20028;-51
2021/07/11 07:58:32;;;;;;;1.95;1.20;;;;;;;;;;5071712;28;20036;-51
2021/07/11 08:00:58;;;;;;;1.70;1.27;;;;;;;;;;5071338;28;20411;-51
2021/07/11 08:03:24;;;;;;;1.90;1.27;;;;;;;;;;5073684;28;20032;-51
2021/07/11 08:05:50;;;;;;;1.67;1.00;;;;;;;;;;5073623;28;20024;-51
2021/07/11 08:08:16;;;;;;;1.83;1.50;;;;;;;;;;5073784;28;20140;-51
2021/07/11 08:10:42;;;;;;;3.72;1.48;;;;;;;;;;5072942;28;20404;-50
2021/07/11 08:13:07;;;;;;;2.38;1.38;;;;;;;;;;5073911;28;20067;-51
2021/07/11 08:15:34;;;;;;;1.80;1.60;;;;;;;;;;5073453;28;20033;-51
2021/07/11 08:18:00;;;;;;;1.52;1.30;;;;;;;;;;5073693;28;20538;-50
2021/07/11 08:20:27;;;;;;;1.50;1.27;;;;;;;;;;5073462;28;20565;-51
2021/07/11 08:22:53;;;;;;;2.45;1.58;;;;;;;;;;5072208;28;20052;-51
2021/07/11 08:25:19;;;;;;;1.95;1.45;;;;;;;;;;5073702;28;20028;-51
2021/07/11 08:27:46;;;;;;;1.45;1.20;;;;;;;;;;5073417;28;20505;-51
2021/07/11 08:30:13;;;;;;;3.70;1.40;;;;;;;;;;5073467;28;20029;-51
2021/07/11 08:32:39;;;;;;;1.70;1.60;;;;;;;;;;5072572;28;20024;-51
2021/07/11 08:35:06;;;;;;;1.20;1.10;;;;;;;;;;5073132;28;20398;-51
2021/07/11 08:37:32;;;;;;;3.25;1.90;;;;;;;;;;5072744;28;20364;-51
2021/07/11 08:39:58;;;;;;;2.53;1.38;;;;;;;;;;5073462;28;20067;-51
2021/07/11 08:42:24;;;;;;;1.30;1.20;;;;;;;;;;5072392;28;20467;-51
2021/07/11 08:44:51;;;;;;;1.70;1.40;;;;;;;;;;5073038;28;20032;-51
2021/07/11 08:47:17;;;;;;;1.83;1.20;;;;;;;;;;5071922;28;20116;-51
2021/07/11 08:49:43;;;;;;;1.90;1.38;;;;;;;;;;5072612;28;20406;-51
2021/07/11 08:52:09;;;;;;;2.13;1.88;;;;;;;;;;5071791;28;20119;-51
2021/07/11 08:54:37;;;;;;;2.35;1.63;;;;;;;;;;5073244;28;20267;-51
2021/07/11 08:57:09;;;;;;;2.95;1.25;;;;;;;;;;5073007;28;20090;-50
2021/07/11 08:59:35;;;;;;;2.00;1.48;;;;;;;;;;5071023;28;20107;-50
2021/07/11 09:02:01;;;;;;;2.20;1.23;;;;;;;;;;5071970;28;20409;-51
2021/07/11 09:04:27;;;;;;;1.40;1.27;;;;;;;;;;5072854;28;20021;-51
2021/07/11 09:06:57;;;;;;;1.38;1.10;;;;;;;;;;5072849;28;20032;-50
2021/07/11 09:09:31;;;;;;;1.17;1.08;;;;;;;;;;5072852;28;20031;-50
2021/07/11 09:12:01;;;;;;;1.50;1.30;;;;;;;;;;5067228;28;20036;-51
2021/07/11 09:14:27;;;;;;;;;;;;;;;;;;5060828;28;20025;-51
2021/07/11 09:16:54;;;;;;;1.20;1.10;;;;;;;;;;5063323;28;19957;-51
2021/07/11 09:19:23;;;;;;;1.80;1.17;;;;;;;;;;5061421;28;20086;-51
2021/07/11 09:21:53;;;;;;;13.25;1.60;;;;;;;;;;5060757;28;20035;-51
2021/07/11 09:24:19;;;;;;;1.15;1.05;;;;;;;;;;5065045;28;20108;-51
2021/07/11 09:26:45;;;;;;;1.50;1.25;;;;;;;;;;5061017;28;20024;-51
2021/07/11 09:29:11;;;;;;;2.35;1.30;;;;;;;;;;5061475;28;20453;-50
2021/07/11 09:31:37;;;;;;;2.35;1.15;;;;;;;;;;5062062;28;20048;-51
2021/07/11 09:34:03;;;;;;;6.70;1.60;;;;;;;;;;5063100;28;20021;-50
2021/07/11 09:36:29;;;;;;;2.05;1.10;;;;;;;;;;5055605;28;20028;-50
2021/07/11 09:38:59;;;;;;;2.17;1.08;;;;;;;;;;5056371;28;20331;-50
2021/07/11 09:41:29;;;;;;;1.77;1.30;;;;;;;;;;5055758;28;20048;-50
2021/07/11 09:43:57;;;;;;;1.08;1.00;;;;;;;;;;5072467;28;20447;-50
2021/07/11 09:46:23;;;;;;;1.88;1.30;;;;;;;;;;5071907;28;20025;-51
2021/07/11 09:48:50;;;;;;;1.52;1.05;;;;;;;;;;5072541;28;20368;-51
2021/07/11 09:51:16;;;;;;;2.50;1.50;;;;;;;;;;5070175;28;20343;-51
2021/07/11 09:53:42;;;;;;;2.78;1.52;;;;;;;;;;5051717;28;20480;-51
2021/07/11 09:56:09;;;;;;;3.50;1.55;;;;;;;;;;5051135;28;20029;-51
2021/07/11 09:58:35;;;;;;;2.03;1.17;;;;;;;;;;5051105;28;20037;-51
2021/07/11 10:01:01;;;;;;;1.05;0.93;;;;;;;;;;5051248;28;20121;-51
2021/07/11 10:03:27;;;;;;;2.53;1.80;;;;;;;;;;5052497;28;20099;-51
2021/07/11 10:05:54;;;;;;;2.53;1.30;;;;;;;;;;5052425;28;20028;-51
2021/07/11 10:08:20;;;;;;;3.90;2.25;;;;;;;;;;5052100;28;20437;-51
2021/07/11 10:10:46;;;;;;;3.33;1.20;;;;;;;;;;5053637;28;20051;-51
2021/07/11 10:13:12;;;;;;;1.30;1.20;;;;;;;;;;5070683;28;20033;-51
2021/07/11 10:15:39;;;;;;;1.60;1.20;;;;;;;;;;5075606;28;20558;-50
2021/07/11 10:18:05;;;;;;;14.27;1.95;;;;;;;;;;5075434;28;20482;-51
2021/07/11 10:20:31;;;;;;;7.90;1.30;;;;;;;;;;5075291;28;20032;-50
2021/07/11 10:22:57;;;;;;;5.43;1.75;;;;;;;;;;5075533;28;20028;-50
2021/07/11 10:25:24;;;;;;;9.23;2.28;;;;;;;;;;5075539;28;20051;-50
2021/07/11 10:28:04;;;;;;;1.92;1.67;;;;;;;;;;5074694;28;20033;-50
2021/07/11 10:30:31;;;;;;;4.13;2.17;;;;;;;;;;5075653;28;20353;-50
2021/07/11 10:33:06;;;;;;;6.00;2.03;;;;;;;;;;5074974;28;20036;-50
2021/07/11 10:35:32;;;;;;;1.58;1.45;;;;;;;;;;5075748;28;20178;-51
2021/07/11 10:37:58;;;;;;;3.40;1.70;;;;;;;;;;5075452;28;20459;-50
2021/07/11 10:40:31;;;;;;;2.47;1.35;;;;;;;;;;5073957;28;20055;-50
2021/07/11 10:42:57;;;;;;;1.33;1.00;;;;;;;;;;5075331;28;20031;-50
2021/07/11 10:45:23;;;;;;;1.48;1.13;;;;;;;;;;5075896;28;20428;-50
2021/07/11 10:47:50;;;;;;;3.45;1.40;;;;;;;;;;5075290;28;20070;-50
2021/07/11 10:50:23;;;;;;;1.48;1.38;;;;;;;;;;5075113;28;20470;-51
2021/07/11 10:52:50;;;;;;;5.75;1.50;;;;;;;;;;5069441;28;20403;-50
2021/07/11 10:55:16;;;;;;;3.28;1.65;;;;;;;;;;5073569;28;20025;-52
2021/07/11 10:57:42;;;;;;;1.52;1.20;;;;;;;;;;5055066;28;20033;-51
2021/07/11 11:00:19;;;;;;;2.45;1.67;;;;;;;;;;5055058;28;20078;-51
2021/07/11 11:02:46;;;;;;;2.42;1.80;;;;;;;;;;5054459;28;20068;-50
2021/07/11 11:05:16;;;;;;;2.30;1.40;;;;;;;;;;5055352;28;20023;-50
2021/07/11 11:07:46;;;;;;;2.78;1.55;;;;;;;;;;5054818;28;20037;-50
2021/07/11 11:10:12;;;;;;;;;;;;;;;;;;5055344;28;20028;-50
2021/07/11 11:12:38;;;;;;;5.78;1.70;;;;;;;;;;5053882;28;19912;-51
2021/07/11 11:15:15;;;;;;;4.13;1.55;;;;;;;;;;5072554;28;20315;-50
2021/07/11 11:17:42;;;;;;;4.68;1.33;;;;;;;;;;5074781;28;20047;-50
2021/07/11 11:20:17;;;;;;;1.08;1.00;;;;;;;;;;5074523;28;20029;-50
2021/07/11 11:22:53;;;;;;;4.50;1.38;;;;;;;;;;5073485;28;20040;-50
2021/07/11 11:25:23;;;;;;;2.90;1.20;;;;;;;;;;5074626;28;20470;-50
2021/07/11 11:27:58;;;;;;;3.42;1.80;;;;;;;;;;5075231;28;20159;-50
2021/07/11 11:30:25;;;;;;;2.42;1.90;;;;;;;;;;5074554;28;20028;-50
2021/07/11 11:32:54;;;;;;;1.92;1.33;;;;;;;;;;5073356;28;20379;-50
2021/07/11 11:35:20;;;;;;;2.50;1.45;;;;;;;;;;5074480;28;20109;-50
2021/07/11 11:37:50;;;;;;;3.05;1.40;;;;;;;;;;5074694;28;20024;-51
2021/07/11 11:40:17;;;;;;;2.15;1.67;;;;;;;;;;5074770;28;20070;-50
2021/07/11 11:42:44;;;;;;;1.92;1.63;;;;;;;;;;5073544;28;20497;-50
2021/07/11 11:45:11;;;;;;;3.05;1.73;;;;;;;;;;5073763;28;20040;-50
2021/07/11 11:47:37;;;;;;;1.98;1.60;;;;;;;;;;5074386;28;20359;-50
2021/07/11 11:50:12;;;;;;;2.33;1.50;;;;;;;;;;5072146;28;20052;-50
2021/07/11 11:52:38;;;;;;;2.70;1.67;;;;;;;;;;5065208;28;20032;-50
2021/07/11 11:55:05;;;;;;;2.17;1.70;;;;;;;;;;5068116;28;20021;-50
2021/07/11 11:57:33;;;;;;;1.25;1.15;;;;;;;;;;5066864;28;20071;-50
2021/07/11 11:59:59;;;;;;;2.15;1.40;;;;;;;;;;5057935;28;20020;-51
2021/07/11 12:02:26;;;;;;;2.33;1.30;;;;;;;;;;5072731;28;20052;-50
2021/07/11 12:04:52;;;;;;;1.92;1.45;;;;;;;;;;5071795;28;20024;-50
2021/07/11 12:07:18;;;;;;;3.85;1.58;;;;;;;;;;5074046;28;20017;-50
2021/07/11 12:09:44;;;;;;;2.95;1.60;;;;;;;;;;5073765;28;20021;-50
2021/07/11 12:12:11;;;;;;;1.75;1.60;;;;;;;;;;5072846;28;20029;-50
2021/07/11 12:14:38;;;;;;;2.20;1.98;;;;;;;;;;5073833;28;20028;-50
2021/07/11 12:17:05;;;;;;;1.65;1.30;;;;;;;;;;5071286;28;20044;-50
2021/07/11 12:19:42;;;;;;;2.42;1.73;;;;;;;;;;5073449;28;20044;-50
2021/07/11 12:22:08;;;;;;;2.10;1.40;;;;;;;;;;5073418;28;20020;-50
2021/07/11 12:24:34;;;;;;;1.70;1.35;;;;;;;;;;5072910;28;20449;-51
2021/07/11 12:27:03;;;;;;;4.45;1.40;;;;;;;;;;5066988;28;20115;-50
2021/07/11 12:29:30;;;;;;;2.53;1.35;;;;;;;;;;5053155;28;20033;-50
2021/07/11 12:32:00;;;;;;;2.25;1.40;;;;;;;;;;5052331;28;20342;-50
2021/07/11 12:34:26;;;;;;;1.50;1.40;;;;;;;;;;5063216;28;20089;-50
2021/07/11 12:37:02;;;;;;;2.70;1.50;;;;;;;;;;5072202;28;20047;-50
2021/07/11 12:39:28;;;;;;;2.00;1.30;;;;;;;;;;5072595;28;20028;-50
2021/07/11 12:41:55;;;;;;;2.20;1.70;;;;;;;;;;5072381;28;20078;-50
2021/07/11 12:44:39;;;;;;;2.83;1.45;;;;;;;;;;5073090;28;20060;-50
2021/07/11 12:47:07;;;;;;;2.28;1.50;;;;;;;;;;5066095;28;20351;-51
2021/07/11 12:49:33;;;;;;;1.98;1.60;;;;;;;;;;5072085;28;20024;-51
2021/07/11 12:52:00;;;;;;;2.70;1.52;;;;;;;;;;5072129;28;20036;-50
2021/07/11 12:54:26;;;;;;;2.47;1.55;;;;;;;;;;5073096;28;20534;-50
2021/07/11 12:56:52;;;;;;;2.13;1.45;;;;;;;;;;5073273;28;20117;-50
2021/07/11 12:59:31;;;;;;;3.97;1.80;;;;;;;;;;5072984;28;20055;-51
2021/07/11 13:02:10;;;;;;;1.27;1.10;;;;;;;;;;5071967;28;20028;-50
2021/07/11 13:04:37;;;;;;;2.00;1.43;;;;;;;;;;5072879;28;20028;-50
2021/07/11 13:07:05;;;;;;;1.13;1.02;;;;;;;;;;5072557;28;20020;-50
2021/07/11 13:09:31;;;;;;;1.48;1.10;;;;;;;;;;5072554;28;20020;-50
2021/07/11 13:11:57;;;;;;;1.98;1.30;;;;;;;;;;5071946;28;20020;-50
2021/07/11 13:14:23;;;;;;;1.25;1.15;;;;;;;;;;5073110;28;20059;-50
2021/07/11 13:16:49;;;;;;;1.30;1.20;;;;;;;;;;5072101;28;20024;-50
2021/07/11 13:19:15;;;;;;;2.30;1.45;;;;;;;;;;5072974;28;20145;-50
2021/07/11 13:21:41;;;;;;;2.63;1.33;;;;;;;;;;5072149;28;20029;-50
2021/07/11 13:24:08;;;;;;;1.80;1.20;;;;;;;;;;5072152;28;20052;-50
2021/07/11 13:26:34;;;;;;;2.95;1.13;;;;;;;;;;5071992;28;20097;-50
2021/07/11 13:29:00;;;;;;;1.70;1.55;;;;;;;;;;5072028;28;20056;-50
2021/07/11 13:31:29;;;;;;;1.45;1.23;;;;;;;;;;5071515;28;20427;-51
2021/07/11 13:33:55;;;;;;;1.67;1.20;;;;;;;;;;5072565;28;20040;-50
2021/07/11 13:36:21;;;;;;;2.20;1.45;;;;;;;;;;5072694;28;20029;-50
2021/07/11 13:38:48;;;;;;;2.65;1.75;;;;;;;;;;5072289;28;20043;-51
2021/07/11 13:41:14;;;;;;;1.48;1.25;;;;;;;;;;5071648;28;20040;-50
2021/07/11 13:43:40;;;;;;;3.60;1.23;;;;;;;;;;5072140;28;20059;-50
2021/07/11 13:46:06;;;;;;;1.48;1.15;;;;;;;;;;5074990;28;20028;-50
2021/07/11 13:48:34;;;;;;;6.63;1.50;;;;;;;;;;5060799;28;20029;-50
2021/07/11 13:51:00;;;;;;;2.70;1.75;;;;;;;;;;5062550;28;20047;-50
2021/07/11 13:53:26;;;;;;;2.83;0.98;;;;;;;;;;5069944;28;20444;-50
2021/07/11 13:55:52;;;;;;;2.15;1.23;;;;;;;;;;5076633;28;20045;-50
2021/07/11 13:58:18;;;;;;;1.48;0.85;;;;;;;;;;5076108;28;20090;-50
2021/07/11 14:00:45;;;;;;;2.92;1.65;;;;;;;;;;5075852;28;20060;-50
2021/07/11 14:03:11;;;;;;;1.95;1.50;;;;;;;;;;5076121;28;20471;-50
2021/07/11 14:05:37;;;;;;;3.25;1.30;;;;;;;;;;5076462;28;20060;-50
2021/07/11 14:08:03;;;;;;;1.73;1.35;;;;;;;;;;5070801;28;20127;-50
2021/07/11 14:10:30;;;;;;;1.50;1.20;;;;;;;;;;5065727;28;20453;-50
2021/07/11 14:12:59;;;;;;;3.30;1.30;;;;;;;;;;5067192;28;20044;-51
2021/07/11 14:15:26;;;;;;;2.08;1.27;;;;;;;;;;5075876;28;20480;-50
2021/07/11 14:17:52;;;;;;;3.17;1.73;;;;;;;;;;5074150;28;20025;-50
2021/07/11 14:20:18;;;;;;;2.55;1.88;;;;;;;;;;5072010;28;20032;-50
2021/07/11 14:22:45;;;;;;;2.95;1.55;;;;;;;;;;5074965;28;20081;-50
2021/07/11 14:25:11;;;;;;;2.92;1.58;;;;;;;;;;5075694;28;20096;-50
2021/07/11 14:27:37;;;;;;;1.55;1.38;;;;;;;;;;5075038;28;20016;-50
2021/07/11 14:30:05;;;;;;;1.50;1.40;;;;;;;;;;5075544;28;20024;-51
2021/07/11 14:32:31;;;;;;;2.70;1.23;;;;;;;;;;5074955;28;20447;-50
2021/07/11 14:34:57;;;;;;;1.52;1.42;;;;;;;;;;5075489;28;20075;-50
2021/07/11 14:37:23;;;;;;;1.25;1.02;;;;;;;;;;5075275;28;20413;-50
2021/07/11 14:39:49;;;;;;;1.83;1.30;;;;;;;;;;5074840;28;20029;-50
2021/07/11 14:42:15;;;;;;;1.55;1.38;;;;;;;;;;5074567;28;20371;-50